createdAt,value
2018-12-06T00:02:08.152Z,1.90
2018-12-06T00:07:13.291Z,2.42
2018-12-06T00:12:18.532Z,4.33
2018-12-06T00:17:23.942Z,2.40
2018-12-06T00:22:28.652Z,2.62
2018-12-06T00:27:33.621Z,2.72
2018-12-06T00:32:38.642Z,2.37
2018-12-06T00:37:43.341Z,5.30
2018-12-06T00:42:48.652Z,2.98
2018-12-06T00:47:53.411Z,4.70
2018-12-06T00:52:58.691Z,2.20
2018-12-06T00:58:03.267Z,1.70
2018-12-06T01:03:08.278Z,2.35
2018-12-06T01:08:13.529Z,2.27
2018-12-06T01:13:18.202Z,1.92
2018-12-06T01:18:23.144Z,2.17
2018-12-06T01:23:28.032Z,2.75
2018-12-06T01:28:32.970Z,1.90
2018-12-06T01:33:37.651Z,2.40
2018-12-06T01:38:42.381Z,2.00
2018-12-06T01:43:47.541Z,2.83
2018-12-06T01:48:52.382Z,1.70
2018-12-06T01:53:59.260Z,3.50
2018-12-06T01:59:04.316Z,3.98
2018-12-06T02:04:09.836Z,6.72
2018-12-06T02:09:14.759Z,6.62
2018-12-06T02:14:19.802Z,7.03
2018-12-06T02:19:24.712Z,6.50
2018-12-06T02:24:29.352Z,10.78
2018-12-06T02:29:51.621Z,6.78
2018-12-06T02:34:56.030Z,7.17
2018-12-06T02:40:00.773Z,6.08
2018-12-06T02:45:05.851Z,6.03
2018-12-06T02:50:12.040Z,5.55
2018-12-06T02:55:17.079Z,7.10
2018-12-06T03:00:22.360Z,6.35
2018-12-06T03:05:27.450Z,5.08
2018-12-06T03:10:32.611Z,6.90
2018-12-06T03:15:38.034Z,5.20
2018-12-06T03:20:43.218Z,7.05
2018-12-06T03:25:48.870Z,5.08
2018-12-06T03:30:54.011Z,6.50
2018-12-06T03:35:58.720Z,5.85
2018-12-06T03:41:03.950Z,5.58
2018-12-06T03:46:09.081Z,3.83
2018-12-06T03:51:14.210Z,5.95
2018-12-06T03:56:19.100Z,4.25
2018-12-06T04:01:24.391Z,4.70
2018-12-06T04:06:29.221Z,6.37
2018-12-06T04:11:33.901Z,4.55
2018-12-06T04:16:39.065Z,5.92
2018-12-06T04:21:44.143Z,6.25
2018-12-06T04:26:49.524Z,5.65
2018-12-06T04:31:55.151Z,5.47
2018-12-06T04:42:03.961Z,4.60
2018-12-06T04:47:09.223Z,5.42
2018-12-06T04:52:14.206Z,4.40
2018-12-06T04:57:18.962Z,4.25
2018-12-06T05:02:24.452Z,3.02
2018-12-06T05:07:29.192Z,4.15
2018-12-06T05:12:35.712Z,5.08
2018-12-06T05:17:40.832Z,3.83
2018-12-06T05:22:45.615Z,3.42
2018-12-06T05:27:50.601Z,3.80
2018-12-06T05:32:55.863Z,3.77
2018-12-06T05:38:01.393Z,3.02
2018-12-06T05:43:06.332Z,3.10
2018-12-06T05:48:10.931Z,3.50
2018-12-06T05:53:15.841Z,3.72
2018-12-06T05:58:20.681Z,3.37
2018-12-06T06:03:26.011Z,3.27
2018-12-06T06:08:30.673Z,4.95
2018-12-06T06:13:36.051Z,4.15
2018-12-06T06:18:40.651Z,3.05
2018-12-06T06:23:45.893Z,2.87
2018-12-06T06:28:51.542Z,4.55
2018-12-06T06:33:56.411Z,2.98
2018-12-06T06:39:01.909Z,3.83
2018-12-06T06:44:07.551Z,4.45
2018-12-06T06:49:14.002Z,2.87
2018-12-06T06:54:17.531Z,4.50
2018-12-06T06:59:26.014Z,3.37
2018-12-06T07:04:27.630Z,3.22
2018-12-06T07:09:32.756Z,4.20
2018-12-06T07:14:37.440Z,3.77
2018-12-06T07:19:42.452Z,2.62
2018-12-06T07:24:47.460Z,4.58
2018-12-06T07:29:52.562Z,4.58
2018-12-06T07:34:57.770Z,7.95
2018-12-06T07:40:02.602Z,9.50
2018-12-06T07:45:07.461Z,7.20
2018-12-06T07:50:12.904Z,4.80
2018-12-06T07:55:17.942Z,5.50
2018-12-06T08:00:23.003Z,7.20
2018-12-06T08:05:28.271Z,9.75
2018-12-06T08:10:33.671Z,6.10
2018-12-06T08:15:38.502Z,10.88
2018-12-06T08:20:43.531Z,6.25
2018-12-06T08:25:48.251Z,7.20
2018-12-06T08:30:53.347Z,8.75
2018-12-06T08:35:58.891Z,5.55
2018-12-06T08:41:04.064Z,8.25
2018-12-06T08:46:09.570Z,8.78
2018-12-06T08:51:15.131Z,8.60
2018-12-06T08:56:19.851Z,8.93
2018-12-06T09:01:24.942Z,8.78
2018-12-06T09:06:30.482Z,10.53
2018-12-06T09:11:35.741Z,6.15
2018-12-06T09:16:40.902Z,8.68
2018-12-06T09:21:46.551Z,7.33
2018-12-06T09:26:58.462Z,6.62
2018-12-06T09:31:56.691Z,7.35
2018-12-06T09:37:01.731Z,4.35
2018-12-06T09:42:06.880Z,7.58
2018-12-06T09:47:11.691Z,7.22
2018-12-06T09:52:16.859Z,6.83
2018-12-06T09:57:22.080Z,5.70
2018-12-06T10:02:27.004Z,5.60
2018-12-06T10:07:32.251Z,7.47
2018-12-06T10:12:36.962Z,8.10
2018-12-06T10:17:41.560Z,7.70
2018-12-06T10:22:46.751Z,7.45
2018-12-06T10:27:52.202Z,4.37
2018-12-06T10:32:57.010Z,6.40
2018-12-06T10:38:02.091Z,11.45
2018-12-06T10:43:07.241Z,7.10
2018-12-06T10:48:11.802Z,7.47
2018-12-06T10:53:17.011Z,10.15
2018-12-06T10:58:21.780Z,9.58
2018-12-06T11:03:29.918Z,9.95
2018-12-06T11:08:35.283Z,11.85
2018-12-06T11:13:39.862Z,16.12
2018-12-06T11:18:44.471Z,13.20
2018-12-06T11:23:50.032Z,11.53
2018-12-06T11:28:54.711Z,12.98
2018-12-06T11:33:59.763Z,15.13
2018-12-06T11:39:07.942Z,12.23
2018-12-06T11:44:12.857Z,8.00
2018-12-06T11:49:18.562Z,9.38
2018-12-06T11:54:24.294Z,9.83
2018-12-06T11:59:30.843Z,13.35
2018-12-06T12:04:36.252Z,11.00
2018-12-06T12:09:41.691Z,9.95
2018-12-06T12:14:50.960Z,10.00
2018-12-06T12:19:55.933Z,8.85
2018-12-06T12:25:02.117Z,9.23
2018-12-06T12:30:11.286Z,9.15
2018-12-06T12:35:15.929Z,8.28
2018-12-06T12:40:21.052Z,10.30
2018-12-06T12:45:27.312Z,9.85
2018-12-06T12:50:32.432Z,7.62
2018-12-06T12:55:37.425Z,7.72
2018-12-06T13:00:42.761Z,5.72
2018-12-06T13:05:47.402Z,7.42
2018-12-06T13:10:52.033Z,4.00
2018-12-06T13:15:57.232Z,5.10
2018-12-06T13:21:02.102Z,10.03
2018-12-06T13:26:07.262Z,6.53
2018-12-06T13:31:12.051Z,6.80
2018-12-06T13:36:16.771Z,7.47
2018-12-06T13:41:21.947Z,5.60
2018-12-06T13:46:27.992Z,7.12
2018-12-06T13:51:33.346Z,9.33
2018-12-06T13:56:38.382Z,9.65
2018-12-06T14:01:43.297Z,10.57
2018-12-06T15:48:07.325Z,21.67
